Time;durP1;ratioP1;P1;durP2;ratioP2;P2;SDS_P1;SDS_P2;PMS_P1;PMS_P2;Temp;Humidity;BMP_temperature;BMP_pressure;BME280_temperature;BME280_humidity;BME280_pressure;Samples;Min_cycle;Max_cycle;Signal;HPM_P1;HPM_P2
2023/08/19 00:00:58;;;;;;;7.43;6.33;;;;;;;20.95;100.00;99899.41;5009299;28;20232;-64
2023/08/19 00:03:23;;;;;;;8.27;5.93;;;;;;;20.93;100.00;99903.97;5020627;28;20190;-64
2023/08/19 00:05:49;;;;;;;6.33;5.67;;;;;;;20.91;100.00;99901.50;5011835;28;20542;-64
2023/08/19 00:08:14;;;;;;;11.70;6.87;;;;;;;20.91;100.00;99900.69;5006112;28;20639;-64
2023/08/19 00:10:40;;;;;;;11.07;6.33;;;;;;;20.88;100.00;99904.41;5001397;28;20252;-63
2023/08/19 00:13:05;;;;;;;9.30;6.17;;;;;;;20.87;100.00;99899.34;5042581;28;20178;-65
2023/08/19 00:15:31;;;;;;;8.30;6.13;;;;;;;20.83;100.00;99911.09;5030117;28;20180;-64
2023/08/19 00:17:57;;;;;;;10.07;6.50;;;;;;;20.82;100.00;99901.63;5032000;28;20291;-64
2023/08/19 00:20:26;;;;;;;12.73;6.00;;;;;;;20.78;100.00;99903.72;5021523;28;20738;-63
2023/08/19 00:22:51;;;;;;;7.90;6.40;;;;;;;20.77;100.00;99895.03;5024325;28;20608;-64
2023/08/19 00:25:16;;;;;;;11.00;6.40;;;;;;;20.70;100.00;99896.63;5011726;28;20178;-64
2023/08/19 00:27:41;;;;;;;10.10;6.17;;;;;;;20.73;100.00;99896.34;5011803;28;20200;-63
2023/08/19 00:30:07;;;;;;;10.27;6.80;;;;;;;20.69;100.00;99902.81;5003520;28;20225;-64
2023/08/19 00:32:32;;;;;;;9.60;5.90;;;;;;;20.64;100.00;99899.88;5046106;28;20183;-63
2023/08/19 00:34:57;;;;;;;6.67;5.43;;;;;;;20.62;100.00;99901.81;5031416;28;20193;-64
2023/08/19 00:37:23;;;;;;;9.37;6.57;;;;;;;20.61;100.00;99906.19;5031641;28;20649;-64
2023/08/19 00:39:48;;;;;;;9.57;5.97;;;;;;;20.60;100.00;99898.50;5031662;28;20209;-63
2023/08/19 00:42:14;;;;;;;6.77;5.80;;;;;;;20.59;100.00;99899.47;5018921;28;20225;-63
2023/08/19 00:44:39;;;;;;;6.53;5.90;;;;;;;20.60;100.00;99894.13;5011398;28;20265;-65
2023/08/19 00:47:05;;;;;;;6.23;5.60;;;;;;;20.57;100.00;99897.03;5011506;28;20270;-64
2023/08/19 00:49:31;;;;;;;7.67;5.60;;;;;;;20.60;100.00;99895.91;5010768;28;20281;-64
2023/08/19 00:51:57;;;;;;;8.60;5.90;;;;;;;20.59;100.00;99904.72;5015355;28;20267;-64
2023/08/19 00:54:23;;;;;;;7.57;5.50;;;;;;;20.57;100.00;99899.63;5010288;28;20205;-64
2023/08/19 00:56:49;;;;;;;10.47;6.23;;;;;;;20.58;100.00;99903.09;5011781;28;20286;-64
2023/08/19 00:59:14;;;;;;;9.43;5.77;;;;;;;20.51;100.00;99895.03;5011597;28;20229;-64
2023/08/19 01:01:40;;;;;;;8.90;5.40;;;;;;;20.51;100.00;99899.44;5014203;28;20622;-64
2023/08/19 01:04:05;;;;;;;7.73;5.40;;;;;;;20.46;100.00;99898.09;5014304;28;20217;-64
2023/08/19 01:06:43;;;;;;;10.50;5.53;;;;;;;20.38;100.00;99894.59;5011727;28;20208;-64
2023/08/19 01:09:23;;;;;;;8.20;5.47;;;;;;;20.44;100.00;99894.84;5011514;28;20179;-64
2023/08/19 01:12:03;;;;;;;9.23;5.53;;;;;;;20.39;100.00;99898.88;5029268;28;20284;-64
2023/08/19 01:14:50;;;;;;;9.20;5.83;;;;;;;20.29;100.00;99897.19;5031050;28;20196;-64
2023/08/19 01:17:20;;;;;;;11.93;6.60;;;;;;;20.37;100.00;99893.81;5031100;28;20267;-64
2023/08/19 01:19:47;;;;;;;7.03;5.40;;;;;;;20.36;100.00;99897.38;5031160;28;20196;-64
2023/08/19 01:22:21;;;;;;;6.63;5.87;;;;;;;20.42;100.00;99886.31;5019143;28;20762;-63
2023/08/19 01:24:48;;;;;;;7.10;5.77;;;;;;;20.42;100.00;99896.75;4998741;28;20703;-64
2023/08/19 01:27:24;;;;;;;11.37;6.07;;;;;;;20.40;100.00;99882.22;5009536;28;20205;-64
2023/08/19 01:29:50;;;;;;;6.37;5.17;;;;;;;20.44;100.00;99880.94;5011273;28;20186;-64
2023/08/19 01:32:17;;;;;;;7.77;5.33;;;;;;;20.35;100.00;99876.63;5007832;28;20236;-64
2023/08/19 01:34:42;;;;;;;9.20;5.57;;;;;;;20.36;100.00;99878.28;5024049;28;20223;-64
2023/08/19 01:37:12;;;;;;;6.90;5.07;;;;;;;20.42;100.00;99886.31;5034748;28;20194;-64
2023/08/19 01:39:42;;;;;;;9.47;6.03;;;;;;;20.49;100.00;99886.50;5035158;28;20625;-64
2023/08/19 01:42:08;;;;;;;7.47;5.10;;;;;;;20.67;100.00;99888.28;5023171;28;20230;-64
2023/08/19 01:44:34;;;;;;;6.50;5.30;;;;;;;20.68;100.00;99890.72;5014664;28;20187;-64
2023/08/19 01:47:16;;;;;;;8.30;5.63;;;;;;;20.62;100.00;99884.31;5014953;28;20179;-63
2023/08/19 01:49:44;;;;;;;8.23;6.00;;;;;;;20.75;100.00;99877.88;5014833;28;20223;-64
2023/08/19 01:52:11;;;;;;;6.63;5.93;;;;;;;20.78;100.00;99886.22;5037315;28;20221;-63
2023/08/19 01:54:36;;;;;;;7.77;5.40;;;;;;;20.73;100.00;99883.28;5034157;28;20202;-65
2023/08/19 01:57:02;;;;;;;10.17;5.30;;;;;;;20.74;100.00;99879.69;5034812;28;20228;-64
2023/08/19 01:59:27;;;;;;;8.07;4.90;;;;;;;20.79;100.00;99885.25;5034376;28;20202;-64
2023/08/19 02:01:52;;;;;;;8.50;5.83;;;;;;;20.81;100.00;99885.09;5023604;28;20291;-64
2023/08/19 02:04:18;;;;;;;11.20;5.60;;;;;;;20.82;100.00;99888.56;5015276;28;20189;-64
2023/08/19 02:06:43;;;;;;;9.20;5.10;;;;;;;20.85;100.00;99890.84;5014634;28;20960;-63
2023/08/19 02:09:08;;;;;;;6.93;5.17;;;;;;;20.88;100.00;99890.53;5014715;28;20179;-63
2023/08/19 02:11:34;;;;;;;11.13;5.80;;;;;;;20.84;100.00;99897.03;5028366;28;20225;-64
2023/08/19 02:13:59;;;;;;;6.83;4.90;;;;;;;20.82;100.00;99893.78;5037226;28;20312;-64
2023/08/19 02:16:24;;;;;;;8.23;5.40;;;;;;;20.82;100.00;99894.59;5034218;28;20276;-64
2023/08/19 02:18:49;;;;;;;6.40;5.30;;;;;;;20.85;100.00;99890.84;5033882;28;20308;-63
2023/08/19 02:21:15;;;;;;;6.27;5.07;;;;;;;20.80;100.00;99888.69;5023870;28;20279;-63
2023/08/19 02:23:40;;;;;;;8.17;5.53;;;;;;;20.83;100.00;99901.47;5020379;28;20511;-63
2023/08/19 02:26:05;;;;;;;7.50;5.80;;;;;;;20.90;100.00;99904.25;5013917;28;20175;-64
2023/08/19 02:28:31;;;;;;;9.87;5.10;;;;;;;20.92;100.00;99904.94;5013363;28;20201;-63
2023/08/19 02:31:03;;;;;;;8.67;4.90;;;;;;;20.89;100.00;99906.06;5018469;28;20225;-63
2023/08/19 02:33:29;;;;;;;8.17;5.33;;;;;;;20.93;100.00;99903.97;5041487;28;20261;-63
2023/08/19 02:35:54;;;;;;;6.20;5.53;;;;;;;20.91;100.00;99901.50;5033549;28;20236;-63
2023/08/19 02:38:20;;;;;;;7.00;4.50;;;;;;;20.89;100.00;99898.22;5033853;28;20171;-63
2023/08/19 02:40:49;;;;;;;5.73;4.17;;;;;;;20.90;100.00;99896.41;5029425;28;20689;-64
2023/08/19 02:43:15;;;;;;;7.40;5.03;;;;;;;20.96;100.00;99901.03;5041969;28;20185;-63
2023/08/19 02:45:41;;;;;;;7.87;4.37;;;;;;;20.99;100.00;99897.28;5033146;28;20268;-64
2023/08/19 02:48:06;;;;;;;10.13;5.03;;;;;;;21.01;100.00;99900.56;5033293;28;20638;-64
2023/08/19 02:50:32;;;;;;;5.67;4.37;;;;;;;21.02;100.00;99900.41;5027648;28;20573;-64
2023/08/19 02:52:57;;;;;;;5.70;4.97;;;;;;;21.09;100.00;99896.19;5045356;28;20719;-64
2023/08/19 02:55:22;;;;;;;9.60;4.60;;;;;;;21.12;100.00;99901.13;5032745;28;20256;-64
2023/08/19 02:57:47;;;;;;;6.17;4.83;;;;;;;21.12;100.00;99898.50;5033324;28;20186;-64
2023/08/19 03:00:15;;;;;;;8.17;4.97;;;;;;;21.14;100.00;99898.34;5024882;28;20202;-64
2023/08/19 03:02:40;;;;;;;7.00;4.90;;;;;;;21.18;100.00;99896.22;5046924;28;20177;-64
2023/08/19 03:05:06;;;;;;;11.17;4.97;;;;;;;21.14;100.00;99898.34;5033261;28;20190;-64
2023/08/19 03:07:31;;;;;;;8.00;4.87;;;;;;;21.18;100.00;99891.81;5032043;28;20581;-64
2023/08/19 03:09:56;;;;;;;6.23;4.33;;;;;;;21.15;100.00;99892.13;5033333;28;20185;-63
2023/08/19 03:12:21;;;;;;;5.37;4.37;;;;;;;21.18;100.00;99897.03;5037567;28;20239;-63
2023/08/19 03:14:47;;;;;;;9.40;4.70;;;;;;;21.21;100.00;99903.75;5032910;28;20221;-64
2023/08/19 03:17:12;;;;;;;8.33;4.73;;;;;;;21.12;100.00;99905.50;5032792;28;20226;-64
2023/08/19 03:19:37;;;;;;;8.30;5.07;;;;;;;21.16;100.00;99896.38;5032722;28;20237;-63
2023/08/19 03:22:03;;;;;;;10.00;4.77;;;;;;;21.18;100.00;99904.06;5035056;28;20315;-63
2023/08/19 03:24:28;;;;;;;6.00;4.43;;;;;;;21.18;100.00;99902.25;5023087;28;20684;-64
2023/08/19 03:26:53;;;;;;;5.23;4.20;;;;;;;21.14;100.00;99898.34;5019420;28;20169;-64
2023/08/19 03:29:18;;;;;;;9.47;4.67;;;;;;;21.10;100.00;99892.59;5033050;28;20201;-63
2023/08/19 03:31:44;;;;;;;8.33;4.40;;;;;;;20.93;100.00;99894.31;5015435;28;20773;-63
2023/08/19 03:34:09;;;;;;;7.07;5.00;;;;;;;20.93;100.00;99889.09;5028929;28;20190;-64
2023/08/19 03:36:34;;;;;;;5.67;4.73;;;;;;;20.87;100.00;99886.28;5032762;28;20196;-64
2023/08/19 03:38:59;;;;;;;8.40;4.57;;;;;;;20.78;100.00;99894.06;5032718;28;20605;-63
2023/08/19 03:41:25;;;;;;;6.20;4.00;;;;;;;20.78;100.00;99891.47;5021766;28;20222;-64
2023/08/19 03:43:50;;;;;;;5.17;4.33;;;;;;;20.74;100.00;99897.97;5018099;28;20186;-63
2023/08/19 03:46:15;;;;;;;6.67;4.20;;;;;;;20.71;100.00;99894.81;5012469;28;20581;-64
2023/08/19 03:48:40;;;;;;;7.27;4.50;;;;;;;20.67;100.00;99888.28;5013092;28;20175;-64
2023/08/19 03:51:05;;;;;;;4.63;4.23;;;;;;;20.63;100.00;99888.56;5010415;28;20229;-64
2023/08/19 03:53:31;;;;;;;12.40;4.77;;;;;;;20.63;100.00;99887.75;5019356;28;20731;-63
2023/08/19 03:55:56;;;;;;;6.63;4.73;;;;;;;20.57;100.00;99891.81;5012000;28;20174;-65
2023/08/19 03:58:21;;;;;;;6.70;4.67;;;;;;;20.48;100.00;99885.72;5012728;28;20170;-64
2023/08/19 04:00:47;;;;;;;6.80;4.97;;;;;;;20.36;100.00;99886.94;5013674;28;20692;-65
2023/08/19 04:03:13;;;;;;;6.47;4.27;;;;;;;20.30;100.00;99893.59;5030572;28;20178;-64
2023/08/19 04:05:38;;;;;;;5.93;4.50;;;;;;;20.16;100.00;99894.94;5031762;28;20590;-65
2023/08/19 04:08:04;;;;;;;6.33;4.67;;;;;;;20.16;100.00;99899.34;5031927;28;20173;-64
2023/08/19 04:10:29;;;;;;;6.50;5.47;;;;;;;20.18;100.00;99900.03;5025536;28;20229;-64
2023/08/19 04:12:54;;;;;;;8.20;4.20;;;;;;;20.20;100.00;99890.25;5043867;28;20665;-64
2023/08/19 04:15:19;;;;;;;7.93;4.93;;;;;;;20.20;100.00;99881.59;5031571;28;20186;-64
2023/08/19 04:17:45;;;;;;;7.03;5.03;;;;;;;20.03;100.00;99884.06;5032006;28;20245;-63
2023/08/19 04:20:13;;;;;;;8.17;4.67;;;;;;;20.09;100.00;99874.81;5023130;28;20205;-64
2023/08/19 04:22:39;;;;;;;5.67;4.97;;;;;;;20.14;100.00;99876.00;5039356;28;20183;-64
2023/08/19 04:25:04;;;;;;;10.13;4.70;;;;;;;20.18;100.00;99878.31;5024466;28;20178;-64
2023/08/19 04:27:31;;;;;;;7.77;5.13;;;;;;;20.00;100.00;99876.53;5031651;28;20544;-64
2023/08/19 04:29:56;;;;;;;6.50;4.83;;;;;;;19.99;100.00;99885.34;5031385;28;20277;-64
2023/08/19 04:32:22;;;;;;;4.47;4.07;;;;;;;20.08;100.00;99888.84;5018651;28;20242;-64
2023/08/19 04:34:47;;;;;;;6.00;5.07;;;;;;;20.11;100.00;99891.16;5011613;28;20186;-64
2023/08/19 04:37:12;;;;;;;7.23;4.73;;;;;;;20.16;100.00;99896.75;5012111;28;20187;-64
2023/08/19 04:39:38;;;;;;;6.13;4.70;;;;;;;20.19;100.00;99900.84;5011838;28;20203;-65
2023/08/19 04:42:03;;;;;;;7.73;5.13;;;;;;;20.25;100.00;99903.66;5027346;28;20221;-64
2023/08/19 04:44:29;;;;;;;5.90;4.80;;;;;;;20.27;100.00;99912.16;5024725;28;20178;-64
2023/08/19 04:46:55;;;;;;;7.17;5.43;;;;;;;20.20;100.00;99907.72;5031533;28;20193;-64
2023/08/19 04:49:20;;;;;;;7.67;5.10;;;;;;;20.15;100.00;99910.75;5031508;28;20189;-64
2023/08/19 04:51:46;;;;;;;7.00;4.80;;;;;;;20.31;100.00;99907.47;5019969;28;20218;-65
2023/08/19 04:54:11;;;;;;;5.37;4.87;;;;;;;20.37;100.00;99909.47;5013842;28;20202;-63
2023/08/19 04:56:36;;;;;;;6.27;5.03;;;;;;;20.44;100.00;99913.13;5011887;28;20229;-64
2023/08/19 04:59:02;;;;;;;7.50;5.20;;;;;;;20.58;100.00;99919.56;5011480;28;20190;-65
2023/08/19 05:01:28;;;;;;;7.87;4.90;;;;;;;20.57;100.00;99917.94;5015107;28;20233;-64
2023/08/19 05:03:54;;;;;;;5.13;4.33;;;;;;;20.72;100.00;99925.25;5019244;28;20186;-65
2023/08/19 05:06:19;;;;;;;7.10;5.00;;;;;;;20.83;100.00;99917.16;5029897;28;20527;-64
2023/08/19 05:08:45;;;;;;;5.80;4.63;;;;;;;21.01;100.00;99924.09;5031433;28;20653;-64
2023/08/19 05:11:10;;;;;;;9.40;5.00;;;;;;;21.14;100.00;99926.28;5011992;28;20234;-64
2023/08/19 05:13:35;;;;;;;5.63;4.30;;;;;;;21.27;100.00;99917.03;5001804;28;20191;-64
2023/08/19 05:16:01;;;;;;;6.00;4.63;;;;;;;21.47;100.00;99926.41;5010813;28;20211;-64
2023/08/19 05:18:26;;;;;;;4.93;4.40;;;;;;;21.54;100.00;99932.63;5011611;28;20238;-64
2023/08/19 05:20:51;;;;;;;8.63;4.40;;;;;;;21.80;100.00;99929.94;5003324;28;20284;-64
2023/08/19 05:23:17;;;;;;;5.23;3.90;;;;;;;21.80;100.00;99937.78;5009834;28;20468;-64
2023/08/19 05:25:43;;;;;;;4.80;3.97;;;;;;;21.84;100.00;99939.09;5010926;28;20229;-64
2023/08/19 05:28:08;;;;;;;4.70;4.13;;;;;;;22.07;100.00;99935.88;5010003;28;20590;-63
2023/08/19 05:30:34;;;;;;;6.37;4.30;;;;;;;22.28;100.00;99931.94;5009683;28;20221;-63
2023/08/19 05:32:59;;;;;;;7.30;4.13;;;;;;;22.37;100.00;99933.59;5017327;28;20193;-63
2023/08/19 05:35:24;;;;;;;5.20;3.87;;;;;;;22.50;100.00;99927.84;5030895;28;20637;-63
2023/08/19 05:37:50;;;;;;;5.67;4.00;;;;;;;22.73;100.00;99928.78;5030755;28;20181;-64
2023/08/19 05:40:15;;;;;;;9.33;3.80;;;;;;;22.88;100.00;99931.56;5020604;28;20194;-63
2023/08/19 05:42:40;;;;;;;7.23;4.10;;;;;;;23.00;100.00;99931.22;5024738;28;20583;-63
2023/08/19 05:45:06;;;;;;;9.53;7.53;;;;;;;23.23;100.00;99933.91;5010731;28;20191;-63
2023/08/19 05:47:31;;;;;;;7.33;5.60;;;;;;;23.48;100.00;99937.25;5011466;28;20174;-64
2023/08/19 05:49:57;;;;;;;5.13;3.77;;;;;;;23.50;100.00;99932.63;5010832;28;20529;-63
2023/08/19 05:52:22;;;;;;;4.33;3.60;;;;;;;23.82;100.00;99943.94;5016624;28;20221;-64
2023/08/19 05:54:47;;;;;;;4.87;3.40;;;;;;;24.18;100.00;99948.63;5010703;28;20233;-63
2023/08/19 05:57:13;;;;;;;6.45;4.00;;;;;;;24.50;100.00;99954.63;5010947;28;20198;-65
2023/08/19 05:59:38;;;;;;;7.15;3.63;;;;;;;24.75;100.00;99958.88;5010723;28;20286;-65
2023/08/19 06:02:03;;;;;;;7.68;3.38;;;;;;;24.93;100.00;99958.50;5032696;28;20308;-63
2023/08/19 06:04:28;;;;;;;7.15;3.60;;;;;;;24.76;100.00;99969.19;5030409;28;20182;-63
2023/08/19 06:06:54;;;;;;;4.25;3.65;;;;;;;24.73;100.00;99963.47;5030930;28;20190;-64
2023/08/19 06:09:19;;;;;;;11.90;4.15;;;;;;;24.87;100.00;99969.75;5030805;28;20212;-63
2023/08/19 06:11:49;;;;;;;8.43;3.88;;;;;;;24.72;100.00;99972.34;5033835;28;20364;-64
2023/08/19 06:14:15;;;;;;;5.18;3.58;;;;;;;24.57;100.00;99981.03;5030266;28;20182;-64
2023/08/19 06:16:41;;;;;;;4.40;3.70;;;;;;;24.65;100.00;99974.91;5026712;28;20549;-65
2023/08/19 06:19:06;;;;;;;4.70;3.28;;;;;;;24.75;100.00;99974.66;5024818;28;20206;-65
2023/08/19 06:21:31;;;;;;;5.75;3.47;;;;;;;24.40;100.00;99964.56;5027532;28;20236;-66
2023/08/19 06:23:57;;;;;;;5.78;3.33;;;;;;;24.27;100.00;99967.78;5032410;28;20197;-64
2023/08/19 06:26:22;;;;;;;4.13;3.70;;;;;;;24.14;100.00;99968.38;5033142;28;20186;-64
2023/08/19 06:28:49;;;;;;;10.00;4.13;;;;;;;24.06;100.00;99965.81;5035632;28;20185;-64
2023/08/19 06:31:14;;;;;;;5.93;3.38;;;;;;;24.15;100.00;99962.16;5018143;28;20250;-63
2023/08/19 06:33:40;;;;;;;8.00;3.47;;;;;;;24.32;100.00;99970.72;5048030;28;20179;-65
2023/08/19 06:36:07;;;;;;;5.85;3.47;;;;;;;24.55;100.00;99967.22;5034880;28;20663;-65
2023/08/19 06:38:34;;;;;;;7.80;3.58;;;;;;;25.05;100.00;99978.09;5046890;28;20177;-65
2023/08/19 06:41:09;;;;;;;5.78;3.13;;;;;;;25.92;100.00;99991.50;5024450;28;20238;-64
2023/08/19 06:43:38;;;;;;;6.35;3.70;;;;;;;26.23;100.00;99993.88;5018082;28;20191;-65
2023/08/19 06:46:05;;;;;;;4.90;3.10;;;;;;;26.81;100.00;99997.38;5014101;28;20214;-65
2023/08/19 06:48:32;;;;;;;9.63;3.33;;;;;;;28.42;100.00;100003.25;5008825;28;20191;-64
2023/08/19 06:50:58;;;;;;;9.02;5.53;;;;;;;29.67;91.06;100005.03;5009278;28;20253;-65
2023/08/19 06:53:23;;;;;;;6.07;2.45;;;;;;;30.78;82.84;100019.78;5006540;28;20207;-66
2023/08/19 06:56:01;;;;;;;3.95;2.60;;;;;;;30.64;80.08;100019.06;5004370;28;20188;-66
2023/08/19 06:58:29;;;;;;;9.68;2.83;;;;;;;30.31;82.44;100012.19;5007065;28;20289;-64
2023/08/19 07:00:59;;;;;;;5.82;2.78;;;;;;;30.97;78.81;100013.41;5007330;28;20225;-63
2023/08/19 07:03:29;;;;;;;4.00;2.80;;;;;;;30.51;81.65;100022.66;5029954;28;20190;-64
2023/08/19 07:05:55;;;;;;;5.78;2.78;;;;;;;30.02;87.74;100009.94;5033360;28;20197;-64
2023/08/19 07:08:21;;;;;;;3.20;2.50;;;;;;;30.94;82.39;100015.72;5034312;28;20261;-64
2023/08/19 07:10:46;;;;;;;2.58;2.38;;;;;;;30.55;82.42;100011.41;5041023;28;20282;-65
2023/08/19 07:13:12;;;;;;;3.83;2.53;;;;;;;30.19;81.41;100017.38;5030415;28;20222;-64
2023/08/19 07:15:42;;;;;;;7.20;2.92;;;;;;;31.17;79.64;100026.53;5049245;28;20182;-66
2023/08/19 07:18:09;;;;;;;3.05;2.60;;;;;;;32.31;70.31;100030.34;5028148;28;20293;-65
2023/08/19 07:20:36;;;;;;;5.85;2.70;;;;;;;32.85;60.25;100033.97;5037874;28;20261;-65
2023/08/19 07:23:01;;;;;;;4.75;2.80;;;;;;;32.43;61.58;100033.03;5034218;28;20206;-64
2023/08/19 07:25:27;;;;;;;6.55;2.53;;;;;;;32.17;63.82;100040.34;5030795;28;20637;-64
2023/08/19 07:27:53;;;;;;;4.75;2.78;;;;;;;32.34;62.54;100034.41;5034564;28;20713;-64
2023/08/19 07:30:19;;;;;;;4.75;2.90;;;;;;;34.22;49.85;100036.06;4997366;28;20272;-66
2023/08/19 07:32:45;;;;;;;6.47;2.50;;;;;;;34.66;46.96;100033.56;4996262;28;20179;-67
2023/08/19 07:35:10;;;;;;;3.10;2.40;;;;;;;35.63;44.57;100035.84;5008624;28;20183;-65
2023/08/19 07:37:36;;;;;;;4.88;2.35;;;;;;;36.97;40.18;100039.56;4998541;28;20552;-65
2023/08/19 07:40:01;;;;;;;8.27;3.28;;;;;;;37.72;38.29;100034.97;5007713;28;20609;-65
2023/08/19 07:42:29;;;;;;;3.67;2.55;;;;;;;37.33;38.12;100035.41;5033966;28;20238;-65
2023/08/19 07:44:55;;;;;;;8.68;2.42;;;;;;;35.71;42.43;100037.25;5039060;28;20188;-64
2023/08/19 07:47:20;;;;;;;3.83;3.08;;;;;;;36.67;40.07;100043.66;5026734;28;20713;-66
2023/08/19 07:49:45;;;;;;;4.63;2.72;;;;;;;36.49;40.02;100050.28;5041234;28;20188;-66
2023/08/19 07:52:10;;;;;;;5.93;2.50;;;;;;;36.75;39.80;100055.75;5005731;28;20584;-65
2023/08/19 07:54:36;;;;;;;4.63;2.67;;;;;;;38.18;36.47;100058.34;5009215;28;20229;-64
2023/08/19 07:57:01;;;;;;;3.70;2.08;;;;;;;37.43;37.36;100062.28;5022226;28;20213;-65
2023/08/19 07:59:26;;;;;;;7.82;2.70;;;;;;;36.82;39.83;100059.03;5007192;28;20217;-66
2023/08/19 08:01:53;;;;;;;9.50;3.30;;;;;;;34.44;47.37;100052.19;5012014;28;20760;-66
2023/08/19 08:04:18;;;;;;;5.15;2.28;;;;;;;34.74;51.27;100057.19;5006694;28;20183;-65
2023/08/19 08:06:48;;;;;;;6.30;2.83;;;;;;;35.09;51.07;100051.78;5012383;28;20248;-65
2023/08/19 08:09:14;;;;;;;5.22;2.65;;;;;;;35.45;46.27;100055.72;5012709;28;20622;-65
2023/08/19 08:11:41;;;;;;;4.60;2.47;;;;;;;34.37;48.41;100041.69;5014722;28;20257;-64
2023/08/19 08:14:06;;;;;;;5.03;2.53;;;;;;;32.85;59.95;100045.44;5015261;28;20321;-64
2023/08/19 08:16:31;;;;;;;6.00;3.17;;;;;;;32.48;62.67;100046.44;5011990;28;20670;-65
2023/08/19 08:18:57;;;;;;;6.55;3.22;;;;;;;33.18;64.81;100049.31;5012323;28;20219;-67
2023/08/19 08:21:23;;;;;;;3.45;2.65;;;;;;;32.17;63.19;100043.00;5012497;28;20719;-65
2023/08/19 08:23:49;;;;;;;8.30;3.05;;;;;;;32.59;69.34;100033.38;5017446;28;20282;-65
2023/08/19 08:26:14;;;;;;;5.35;2.67;;;;;;;31.77;65.82;100038.28;5011463;28;20565;-66
2023/08/19 08:28:39;;;;;;;3.90;2.63;;;;;;;32.85;63.08;100034.78;5012236;28;20190;-66
2023/08/19 08:31:05;;;;;;;7.22;2.78;;;;;;;32.65;61.69;100041.25;5013765;28;20232;-65
2023/08/19 08:33:30;;;;;;;6.18;2.85;;;;;;;32.57;67.53;100041.59;5031038;28;20190;-65
2023/08/19 08:35:55;;;;;;;5.22;2.88;;;;;;;32.68;72.74;100039.97;5030863;28;20193;-65
2023/08/19 08:38:21;;;;;;;4.90;2.92;;;;;;;32.18;65.72;100047.28;5032041;28;20588;-65
2023/08/19 08:40:46;;;;;;;4.72;2.65;;;;;;;31.03;76.05;100047.06;5020786;28;20230;-66
2023/08/19 08:43:12;;;;;;;7.88;2.88;;;;;;;30.16;85.98;100052.28;5021975;28;20289;-65
2023/08/19 08:45:37;;;;;;;7.90;3.58;;;;;;;30.42;94.31;100054.72;5010990;28;20194;-65
2023/08/19 08:48:04;;;;;;;5.90;3.03;;;;;;;30.80;88.14;100050.38;5011955;28;20213;-63
2023/08/19 08:50:29;;;;;;;7.55;3.10;;;;;;;30.76;90.97;100057.13;5008755;28;20347;-63
2023/08/19 08:52:56;;;;;;;5.93;2.83;;;;;;;30.05;91.54;100045.81;5037709;28;20280;-63
2023/08/19 08:55:21;;;;;;;5.22;3.17;;;;;;;29.86;92.07;100045.69;5031168;28;20198;-63
2023/08/19 08:57:46;;;;;;;6.10;2.75;;;;;;;29.63;94.81;100049.69;5031114;28;20185;-64
2023/08/19 09:00:14;;;;;;;5.45;3.20;;;;;;;29.78;96.78;100045.94;5021501;28;20280;-63
2023/08/19 09:02:40;;;;;;;6.03;3.38;;;;;;;29.09;96.60;100045.56;5025246;28;20187;-64
2023/08/19 09:05:06;;;;;;;5.28;3.35;;;;;;;29.15;96.65;100047.38;5011429;28;20213;-63
2023/08/19 09:07:37;;;;;;;5.72;3.22;;;;;;;28.89;98.66;100035.00;5011447;28;20654;-63
2023/08/19 09:10:04;;;;;;;4.50;3.25;;;;;;;28.94;99.41;100027.25;5006847;28;20494;-63
2023/08/19 09:12:33;;;;;;;11.85;3.30;;;;;;;28.65;100.00;100027.47;5030829;28;20206;-63
2023/08/19 09:15:03;;;;;;;7.35;3.47;;;;;;;28.55;100.00;100034.97;5029457;28;20697;-63
2023/08/19 09:17:30;;;;;;;7.68;3.30;;;;;;;28.77;100.00;100030.31;5031319;28;20226;-64
2023/08/19 09:19:56;;;;;;;5.32;3.30;;;;;;;28.16;100.00;100029.47;5030907;28;20571;-63
2023/08/19 09:22:23;;;;;;;10.77;3.63;;;;;;;27.89;100.00;100025.13;5018238;28;20232;-64
2023/08/19 09:24:48;;;;;;;6.90;3.47;;;;;;;28.10;100.00;100014.41;5011127;28;20631;-64
2023/08/19 09:27:24;;;;;;;7.00;3.53;;;;;;;28.09;100.00;100020.72;5011543;28;20256;-64
2023/08/19 09:29:50;;;;;;;3.95;3.08;;;;;;;27.81;100.00;100029.59;5011303;28;20668;-64
2023/08/19 09:32:15;;;;;;;8.50;2.85;;;;;;;28.10;100.00;100032.13;5034499;28;20311;-64
2023/08/19 09:34:41;;;;;;;7.63;3.67;;;;;;;28.70;100.00;100039.28;5030770;28;20174;-64
2023/08/19 09:37:08;;;;;;;6.32;3.83;;;;;;;29.04;100.00;100038.22;5030854;28;20300;-64
2023/08/19 09:39:34;;;;;;;8.70;3.97;;;;;;;29.59;100.00;100045.00;5031180;28;20205;-62
2023/08/19 09:41:59;;;;;;;5.05;3.35;;;;;;;30.12;100.00;100054.56;5019243;28;20279;-64
2023/08/19 09:44:29;;;;;;;5.20;3.95;;;;;;;30.21;96.45;100052.44;5020628;28;20193;-64
2023/08/19 09:46:56;;;;;;;10.23;3.92;;;;;;;30.51;95.70;100063.25;5030751;28;20271;-63
2023/08/19 09:49:23;;;;;;;6.45;3.20;;;;;;;30.86;97.77;100059.28;5031139;28;20186;-64
2023/08/19 09:51:57;;;;;;;7.75;3.55;;;;;;;31.60;88.16;100061.19;5020606;28;20222;-64
2023/08/19 09:54:23;;;;;;;6.72;3.42;;;;;;;32.21;87.71;100058.56;5015439;28;20206;-65
2023/08/19 09:56:53;;;;;;;7.55;3.60;;;;;;;32.41;84.48;100058.25;5015024;28;20245;-65
2023/08/19 09:59:19;;;;;;;5.93;3.42;;;;;;;32.53;78.84;100060.94;5014644;28;20309;-64
2023/08/19 10:01:44;;;;;;;7.38;3.75;;;;;;;31.79;84.28;100060.16;5026352;28;20721;-64
2023/08/19 10:04:09;;;;;;;3.67;3.30;;;;;;;31.91;83.87;100059.38;5036265;28;20203;-63
2023/08/19 10:06:39;;;;;;;8.57;2.90;;;;;;;34.34;74.99;100062.69;5034585;28;20240;-64
2023/08/19 10:09:08;;;;;;;8.82;3.30;;;;;;;35.07;60.78;100060.84;5034504;28;20544;-63
2023/08/19 10:11:35;;;;;;;7.22;3.70;;;;;;;34.50;60.11;100071.78;5023796;28;20287;-64
2023/08/19 10:14:03;;;;;;;5.25;3.67;;;;;;;34.26;65.65;100067.38;5017879;28;20241;-65
2023/08/19 10:16:35;;;;;;;6.25;3.70;;;;;;;33.41;71.21;100058.34;5014517;28;20601;-65
2023/08/19 10:19:02;;;;;;;6.60;3.47;;;;;;;32.18;83.18;100055.28;5015026;28;20197;-64
2023/08/19 10:21:30;;;;;;;3.35;3.05;;;;;;;32.53;83.51;100056.41;5006453;28;20236;-65
2023/08/19 10:23:57;;;;;;;5.57;3.30;;;;;;;32.57;82.18;100075.41;5013095;28;20199;-64
2023/08/19 10:26:22;;;;;;;4.28;2.97;;;;;;;32.99;80.86;100069.97;5013059;28;20184;-64
2023/08/19 10:29:07;;;;;;;8.80;4.18;;;;;;;32.88;76.32;100068.13;5014585;28;20685;-64
2023/08/19 10:31:35;;;;;;;7.70;3.75;;;;;;;32.87;75.46;100077.16;5015696;28;20217;-64
2023/08/19 10:34:11;;;;;;;4.40;3.60;;;;;;;33.66;69.60;100076.69;5017600;28;20195;-64
2023/08/19 10:36:37;;;;;;;8.52;4.00;;;;;;;33.84;67.63;100083.72;5001509;28;20188;-64
2023/08/19 10:39:05;;;;;;;6.05;3.85;;;;;;;33.49;72.37;100079.28;5013931;28;20194;-64
2023/08/19 10:41:35;;;;;;;5.88;3.58;;;;;;;33.26;74.05;100086.28;5015465;28;20229;-63
2023/08/19 10:44:03;;;;;;;5.13;3.65;;;;;;;33.01;76.93;100089.22;5016750;28;20194;-64
2023/08/19 10:46:46;;;;;;;9.25;4.00;;;;;;;33.15;77.40;100093.25;5013906;28;20174;-65
2023/08/19 10:49:20;;;;;;;6.35;3.88;;;;;;;33.32;84.34;100092.56;5013895;28;20182;-64
2023/08/19 10:51:53;;;;;;;5.40;3.70;;;;;;;33.22;83.45;100100.28;5019676;28;20234;-65
2023/08/19 10:54:40;;;;;;;6.57;3.97;;;;;;;33.04;75.25;100102.06;5031878;28;20205;-65
2023/08/19 10:57:09;;;;;;;8.85;4.65;;;;;;;32.92;78.51;100098.59;5032400;28;20190;-64
2023/08/19 10:59:36;;;;;;;5.40;3.72;;;;;;;32.75;88.79;100099.28;5033233;28;20205;-65
2023/08/19 11:02:02;;;;;;;7.55;4.03;;;;;;;32.59;87.26;100091.97;5022627;28;20236;-65
2023/08/19 11:04:27;;;;;;;6.32;3.60;;;;;;;31.66;91.37;100100.19;5012092;28;20175;-65
2023/08/19 11:06:53;;;;;;;6.47;4.10;;;;;;;31.38;95.35;100106.81;5013801;28;20627;-64
2023/08/19 11:09:19;;;;;;;10.82;4.18;;;;;;;30.84;94.26;100106.50;5013606;28;20177;-64
2023/08/19 11:11:44;;;;;;;7.97;3.72;;;;;;;31.42;99.00;100108.00;5016985;28;20222;-64
2023/08/19 11:14:17;;;;;;;6.43;3.80;;;;;;;31.75;93.81;100114.78;5035317;28;20529;-64
2023/08/19 11:16:49;;;;;;;4.43;3.78;;;;;;;32.35;93.40;100121.19;5033113;28;20202;-66
2023/08/19 11:19:16;;;;;;;6.85;4.00;;;;;;;32.15;91.98;100118.78;5033522;28;20190;-64
2023/08/19 11:21:44;;;;;;;7.30;3.42;;;;;;;32.22;91.02;100114.22;5022111;28;20582;-65